Time,TemperatureF,DewpointF,PressureIn,WindDirection,WindDirectionDegrees,WindSpeedMPH,WindSpeedGustMPH,Humidity,HourlyPrecipIn,Conditions,Clouds,dailyrainin,SoftwareType,DateUTC
2013-01-30 00:00:00,66.7,64.0,30.03,SSW,202,5.8,5.8,91,0.00,CLR,,0.01,WeatherDisplay:10.37,2013-01-30 05:00:00,
2013-01-30 00:01:00,66.7,64.0,30.03,SSW,193,4.6,4.6,91,0.00,RA,,0.00,WeatherDisplay:10.37,2013-01-30 05:01:00,
2013-01-30 00:03:00,66.3,63.9,30.03,SSE,151,3.5,3.5,92,0.00,RA,,0.00,WeatherDisplay:10.37,2013-01-30 05:03:00,
2013-01-30 00:08:00,65.8,64.0,30.03,SSE,158,2.9,2.9,94,0.00,RA,,0.00,WeatherDisplay:10.37,2013-01-30 05:08:00,
2013-01-30 00:13:00,65.5,64.0,30.03,SSE,160,3.5,3.5,95,0.00,CLR,,0.00,WeatherDisplay:10.37,2013-01-30 05:13:00,
2013-01-30 00:18:00,65.2,63.7,30.03,SE,145,2.3,0.0,95,0.00,CLR,,0.00,WeatherDisplay:10.37,2013-01-30 05:18:00,
2013-01-30 00:23:00,65.1,63.9,30.03,ESE,109,0.0,0.0,96,0.00,CLR,,0.00,WeatherDisplay:10.37,2013-01-30 05:23:00,
2013-01-30 00:28:00,64.8,63.6,30.03,SSE,150,3.7,3.7,96,0.00,CLR,,0.00,WeatherDisplay:10.37,2013-01-30 05:28:00,
2013-01-30 00:33:00,64.8,63.6,30.02,SE,130,3.5,3.5,96,0.00,CLR,,0.00,WeatherDisplay:10.37,2013-01-30 05:33:00,
2013-01-30 00:38:00,64.8,63.9,30.02,East,90,3.5,3.5,97,0.00,CLR,,0.00,WeatherDisplay:10.37,2013-01-30 05:38:00,
2013-01-30 00:43:00,64.7,63.8,30.02,ESE,120,3.5,3.5,97,0.00,CLR,,0.00,WeatherDisplay:10.37,2013-01-30 05:43:00,
2013-01-30 00:48:00,64.7,63.8,30.01,SE,144,0.0,0.0,97,0.00,CLR,,0.00,WeatherDisplay:10.37,2013-01-30 05:48:00,
2013-01-30 00:53:00,64.5,63.6,30.01,SE,124,3.5,3.5,97,0.00,CLR,,0.00,WeatherDisplay:10.37,2013-01-30 05:53:00,
2013-01-30 00:58:00,64.4,63.5,30.00,SE,126,3.5,3.5,97,0.00,CLR,,0.00,WeatherDisplay:10.37,2013-01-30 05:58:00,
2013-01-30 01:03:00,64.4,63.8,30.00,SSE,148,2.9,2.9,98,0.00,CLR,,0.00,WeatherDisplay:10.37,2013-01-30 06:03:00,
2013-01-30 01:08:00,64.3,63.7,30.00,SSE,161,4.0,4.0,98,0.00,CLR,,0.00,WeatherDisplay:10.37,2013-01-30 06:08:00,
2013-01-30 01:13:00,64.4,63.8,30.00,SSE,165,0.0,0.0,98,0.00,CLR,,0.00,WeatherDisplay:10.37,2013-01-30 06:13:00,
2013-01-30 01:18:00,64.4,63.8,30.00,SSE,151,3.0,3.0,98,0.00,CLR,,0.00,WeatherDisplay:10.37,2013-01-30 06:18:00,
2013-01-30 01:23:00,64.4,64.1,30.00,ESE,107,2.3,2.3,99,0.00,CLR,,0.00,WeatherDisplay:10.37,2013-01-30 06:23:00,
2013-01-30 01:28:00,64.7,64.1,30.00,SSW,200,0.0,0.0,98,0.00,CLR,,0.00,WeatherDisplay:10.37,2013-01-30 06:28:00,
2013-01-30 01:33:00,64.7,64.1,30.00,ESE,107,4.6,4.6,98,0.00,CLR,,0.00,WeatherDisplay:10.37,2013-01-30 06:33:00,
2013-01-30 01:38:00,64.9,64.3,29.99,SSE,168,5.8,5.8,98,0.00,CLR,,0.00,WeatherDisplay:10.37,2013-01-30 06:38:00,
2013-01-30 01:43:00,64.7,64.1,29.99,South,189,4.6,4.6,98,0.00,CLR,,0.00,WeatherDisplay:10.37,2013-01-30 06:43:00,
2013-01-30 01:48:00,64.8,64.2,29.99,South,172,6.9,6.9,98,0.00,CLR,,0.00,WeatherDisplay:10.37,2013-01-30 06:48:00,
2013-01-30 01:53:00,64.8,64.2,29.99,SE,140,5.8,5.8,98,0.00,CLR,,0.00,WeatherDisplay:10.37,2013-01-30 06:53:00,
2013-01-30 01:58:00,66.1,65.5,29.98,SSE,158,6.9,6.9,98,0.00,CLR,,0.00,WeatherDisplay:10.37,2013-01-30 06:58:00,
2013-01-30 02:03:00,67.1,65.6,29.99,WSW,247,3.5,3.5,95,0.00,CLR,,0.00,WeatherDisplay:10.37,2013-01-30 07:03:00,
2013-01-30 02:08:00,66.7,65.5,29.98,ESE,117,2.3,0.0,96,0.00,CLR,,0.00,WeatherDisplay:10.37,2013-01-30 07:08:00,
2013-01-30 02:13:00,66.0,64.8,29.98,SSE,158,2.3,2.3,96,0.00,CLR,,0.00,WeatherDisplay:10.37,2013-01-30 07:13:00,
2013-01-30 02:18:00,65.6,64.7,29.98,SSE,147,4.6,4.6,97,0.00,CLR,,0.00,WeatherDisplay:10.37,2013-01-30 07:18:00,
2013-01-30 02:23:00,65.2,64.3,29.97,West,263,3.5,3.5,97,0.00,CLR,,0.00,WeatherDisplay:10.37,2013-01-30 07:23:00,
2013-01-30 02:28:00,65.1,64.5,29.97,SSE,147,5.5,5.5,98,0.00,CLR,,0.00,WeatherDisplay:10.37,2013-01-30 07:28:00,
2013-01-30 02:33:00,64.9,64.3,29.97,South,182,5.8,5.8,98,0.00,CLR,,0.00,WeatherDisplay:10.37,2013-01-30 07:33:00,
2013-01-30 02:38:00,64.7,64.1,29.97,SSE,147,4.6,4.6,98,0.00,CLR,,0.00,WeatherDisplay:10.37,2013-01-30 07:38:00,
2013-01-30 02:43:00,64.6,64.0,29.96,SSE,161,3.5,3.5,98,0.00,CLR,,0.00,WeatherDisplay:10.37,2013-01-30 07:43:00,
2013-01-30 02:48:00,64.5,63.9,29.97,SSE,147,6.9,6.9,98,0.00,CLR,,0.00,WeatherDisplay:10.37,2013-01-30 07:48:00,
2013-01-30 02:53:00,64.5,64.2,29.96,ESE,109,5.8,5.8,99,0.00,CLR,,0.00,WeatherDisplay:10.37,2013-01-30 07:53:00,
2013-01-30 02:58:00,64.5,64.2,29.96,SSE,161,3.5,3.5,99,0.00,CLR,,0.00,WeatherDisplay:10.37,2013-01-30 07:58:00,
2013-01-30 03:03:00,64.5,64.2,29.96,South,182,4.8,4.8,99,0.00,CLR,,0.00,WeatherDisplay:10.37,2013-01-30 08:03:00,
2013-01-30 03:08:00,64.4,64.1,29.96,SSW,198,3.7,3.7,99,0.00,CLR,,0.00,WeatherDisplay:10.37,2013-01-30 08:08:00,
2013-01-30 03:14:00,64.4,64.1,29.96,South,176,4.6,4.6,99,0.00,CLR,,0.00,WeatherDisplay:10.37,2013-01-30 08:14:00,
2013-01-30 03:19:00,64.3,64.0,29.95,ESE,112,6.1,6.1,99,0.00,CLR,,0.00,WeatherDisplay:10.37,2013-01-30 08:19:00,
2013-01-30 03:24:00,64.3,64.0,29.95,South,181,5.2,5.2,99,0.00,CLR,,0.00,WeatherDisplay:10.37,2013-01-30 08:24:00,
2013-01-30 03:29:00,64.2,63.9,29.95,SSE,165,6.9,6.9,99,0.00,CLR,,0.00,WeatherDisplay:10.37,2013-01-30 08:29:00,
2013-01-30 03:34:00,64.3,64.0,29.95,SW,220,5.8,5.8,99,0.00,CLR,,0.00,WeatherDisplay:10.37,2013-01-30 08:34:00,
2013-01-30 03:39:00,64.2,63.9,29.94,SE,145,5.8,5.8,99,0.00,CLR,,0.00,WeatherDisplay:10.37,2013-01-30 08:39:00,
2013-01-30 03:44:00,64.3,64.0,29.94,SW,217,4.6,4.6,99,0.00,CLR,,0.00,WeatherDisplay:10.37,2013-01-30 08:44:00,
2013-01-30 03:49:00,64.0,63.7,29.94,SE,133,5.8,5.8,99,0.00,CLR,,0.00,WeatherDisplay:10.37,2013-01-30 08:49:00,
2013-01-30 03:54:00,64.1,63.8,29.93,SSE,152,4.6,4.9,99,0.00,CLR,,0.00,WeatherDisplay:10.37,2013-01-30 08:54:00,
2013-01-30 03:59:00,64.2,63.9,29.93,South,189,3.5,3.5,99,0.00,CLR,,0.00,WeatherDisplay:10.37,2013-01-30 08:59:00,
2013-01-30 04:04:00,64.2,63.9,29.93,South,189,5.8,5.8,99,0.00,CLR,,0.00,WeatherDisplay:10.37,2013-01-30 09:04:00,
2013-01-30 04:09:00,64.1,63.8,29.93,South,172,3.5,3.5,99,0.00,CLR,,0.00,WeatherDisplay:10.37,2013-01-30 09:09:00,
2013-01-30 04:14:00,64.1,64.1,29.92,South,186,5.8,5.8,100,0.00,CLR,,0.00,WeatherDisplay:10.37,2013-01-30 09:14:00,
2013-01-30 04:19:00,63.9,63.9,29.92,East,80,5.8,5.8,100,0.00,CLR,,0.00,WeatherDisplay:10.37,2013-01-30 09:19:00,
2013-01-30 04:24:00,64.0,64.0,29.92,SE,143,5.0,5.0,100,0.00,CLR,,0.00,WeatherDisplay:10.37,2013-01-30 09:24:00,
2013-01-30 04:29:00,64.0,64.0,29.93,SSE,154,5.8,5.8,100,0.00,CLR,,0.00,WeatherDisplay:10.37,2013-01-30 09:29:00,
2013-01-30 04:34:00,63.9,63.9,29.93,East,100,1.1,1.1,100,0.00,CLR,,0.00,WeatherDisplay:10.37,2013-01-30 09:34:00,
2013-01-30 04:39:00,63.9,63.9,29.93,ESE,120,6.9,6.9,100,0.00,CLR,,0.00,WeatherDisplay:10.37,2013-01-30 09:39:00,
2013-01-30 04:44:00,64.0,64.0,29.92,SSE,164,8.1,8.1,100,0.00,CLR,,0.00,WeatherDisplay:10.37,2013-01-30 09:44:00,
2013-01-30 04:49:00,64.0,64.0,29.91,ESE,112,3.5,3.5,100,0.00,CLR,,0.00,WeatherDisplay:10.37,2013-01-30 09:49:00,
2013-01-30 04:54:00,63.9,63.9,29.91,SSE,162,3.5,3.5,100,0.00,CLR,,0.00,WeatherDisplay:10.37,2013-01-30 09:54:00,
2013-01-30 04:59:00,63.9,63.9,29.91,SE,128,4.6,4.6,100,0.00,CLR,,0.00,WeatherDisplay:10.37,2013-01-30 09:59:00,
2013-01-30 05:04:00,64.0,64.0,29.91,South,185,8.1,8.1,100,0.00,CLR,,0.00,WeatherDisplay:10.37,2013-01-30 10:04:00,
2013-01-30 05:09:00,63.9,63.9,29.90,SW,224,4.6,4.6,100,0.00,CLR,,0.00,WeatherDisplay:10.37,2013-01-30 10:09:00,
2013-01-30 05:14:00,63.8,63.8,29.90,SSW,202,3.7,3.7,100,0.00,CLR,,0.00,WeatherDisplay:10.37,2013-01-30 10:14:00,
2013-01-30 05:19:00,64.0,64.0,29.90,South,175,5.8,5.8,100,0.00,CLR,,0.00,WeatherDisplay:10.37,2013-01-30 10:19:00,
2013-01-30 05:24:00,64.0,63.7,29.90,SE,137,4.6,4.6,99,0.00,CLR,,0.00,WeatherDisplay:10.37,2013-01-30 10:24:00,
2013-01-30 05:29:00,64.0,63.7,29.90,South,171,8.1,8.1,99,0.00,CLR,,0.00,WeatherDisplay:10.37,2013-01-30 10:29:00,
2013-01-30 05:34:00,64.1,63.8,29.90,South,181,5.0,5.0,99,0.00,CLR,,0.00,WeatherDisplay:10.37,2013-01-30 10:34:00,
2013-01-30 05:39:00,64.2,63.9,29.90,South,169,5.8,5.8,99,0.00,CLR,,0.00,WeatherDisplay:10.37,2013-01-30 10:39:00,
2013-01-30 05:44:00,64.1,63.8,29.89,SSW,213,4.6,4.6,99,0.00,CLR,,0.00,WeatherDisplay:10.37,2013-01-30 10:44:00,
2013-01-30 05:49:00,64.2,63.6,29.89,ESE,119,7.1,7.1,98,0.00,CLR,,0.00,WeatherDisplay:10.37,2013-01-30 10:49:00,
2013-01-30 05:54:00,65.1,64.8,29.90,SSW,193,6.9,6.9,99,0.00,CLR,,0.00,WeatherDisplay:10.37,2013-01-30 10:54:00,
2013-01-30 05:59:00,66.4,64.9,29.89,SSE,155,8.1,8.1,95,0.00,CLR,,0.00,WeatherDisplay:10.37,2013-01-30 10:59:00,
2013-01-30 06:04:00,66.1,64.6,29.89,SSW,193,8.1,8.1,95,0.00,CLR,,0.00,WeatherDisplay:10.37,2013-01-30 11:04:00,
2013-01-30 06:09:00,65.7,64.5,29.89,SSE,157,9.2,9.2,96,0.00,CLR,,0.00,WeatherDisplay:10.37,2013-01-30 11:09:00,
2013-01-30 06:14:00,65.2,64.0,29.89,SSE,167,5.8,5.8,96,0.00,CLR,,0.00,WeatherDisplay:10.37,2013-01-30 11:14:00,
2013-01-30 06:19:00,65.0,64.1,29.89,SSE,147,5.8,5.8,97,0.00,CLR,,0.00,WeatherDisplay:10.37,2013-01-30 11:19:00,
2013-01-30 06:24:00,64.9,64.0,29.89,SE,126,9.2,9.2,97,0.00,CLR,,0.00,WeatherDisplay:10.37,2013-01-30 11:24:00,
2013-01-30 06:29:00,64.7,64.1,29.88,South,174,5.8,5.8,98,0.00,CLR,,0.00,WeatherDisplay:10.37,2013-01-30 11:29:00,
2013-01-30 06:34:00,64.7,64.1,29.88,SSW,206,4.6,4.6,98,0.00,CLR,,0.00,WeatherDisplay:10.37,2013-01-30 11:34:00,
2013-01-30 06:39:00,64.5,63.9,29.88,South,176,5.8,5.8,98,0.00,CLR,,0.00,WeatherDisplay:10.37,2013-01-30 11:39:00,
2013-01-30 06:44:00,64.4,63.8,29.87,ESE,110,8.1,8.1,98,0.00,CLR,,0.00,WeatherDisplay:10.37,2013-01-30 11:44:00,
2013-01-30 06:49:00,64.4,64.1,29.87,SE,140,5.8,5.8,99,0.00,CLR,,0.00,WeatherDisplay:10.37,2013-01-30 11:49:00,
2013-01-30 06:54:00,64.3,64.0,29.87,SSW,200,8.0,8.0,99,0.00,CLR,,0.00,WeatherDisplay:10.37,2013-01-30 11:54:00,
2013-01-30 06:59:00,64.3,64.0,29.87,SE,143,10.4,10.4,99,0.00,CLR,,0.00,WeatherDisplay:10.37,2013-01-30 11:59:00,
2013-01-30 07:04:00,64.5,64.2,29.87,ESE,119,5.8,5.8,99,0.00,CLR,,0.00,WeatherDisplay:10.37,2013-01-30 12:04:00,
2013-01-30 07:09:00,64.4,64.1,29.87,SSW,192,8.1,8.1,99,0.00,CLR,,0.00,WeatherDisplay:10.37,2013-01-30 12:09:00,
2013-01-30 07:14:00,64.4,64.1,29.86,South,182,9.2,9.2,99,0.00,CLR,,0.00,WeatherDisplay:10.37,2013-01-30 12:14:00,
2013-01-30 07:19:00,64.4,64.1,29.86,SSE,147,17.3,17.3,99,0.00,CLR,,0.00,WeatherDisplay:10.37,2013-01-30 12:19:00,
2013-01-30 07:24:00,64.4,64.4,29.86,South,188,5.8,5.8,100,0.00,CLR,,0.00,WeatherDisplay:10.37,2013-01-30 12:24:00,
2013-01-30 07:29:00,64.4,64.4,29.86,SE,141,11.5,11.5,100,0.00,CLR,,0.00,WeatherDisplay:10.37,2013-01-30 12:29:00,
2013-01-30 07:34:00,64.5,64.5,29.85,SSE,154,8.1,8.1,100,0.00,CLR,,0.00,WeatherDisplay:10.37,2013-01-30 12:34:00,
2013-01-30 07:39:00,64.5,64.5,29.85,ESE,121,9.5,9.5,100,0.00,CLR,,0.00,WeatherDisplay:10.37,2013-01-30 12:39:00,
2013-01-30 07:44:00,64.6,64.6,29.85,East,86,9.2,9.2,100,0.00,CLR,,0.00,WeatherDisplay:10.37,2013-01-30 12:44:00,
2013-01-30 07:49:00,64.6,64.6,29.85,SE,136,5.8,5.8,100,0.00,CLR,,0.00,WeatherDisplay:10.37,2013-01-30 12:49:00,
2013-01-30 07:54:00,64.5,64.5,29.84,South,169,5.8,5.8,100,0.00,CLR,,0.00,WeatherDisplay:10.37,2013-01-30 12:54:00,
2013-01-30 07:59:00,64.7,64.7,29.84,SSE,160,10.4,10.4,100,0.00,CLR,,0.00,WeatherDisplay:10.37,2013-01-30 12:59:00,
2013-01-30 08:04:00,64.8,64.8,29.83,SW,216,10.4,10.4,100,0.00,CLR,,0.00,WeatherDisplay:10.37,2013-01-30 13:04:00,
2013-01-30 08:09:00,65.0,65.0,29.83,South,188,8.1,8.1,100,0.00,CLR,,0.00,WeatherDisplay:10.37,2013-01-30 13:09:00,
2013-01-30 08:14:00,65.1,65.1,29.83,SE,133,6.9,6.9,100,0.00,CLR,,0.00,WeatherDisplay:10.37,2013-01-30 13:14:00,
2013-01-30 08:19:00,65.3,65.3,29.83,South,185,5.8,5.8,100,0.00,CLR,,0.00,WeatherDisplay:10.37,2013-01-30 13:19:00,
2013-01-30 08:24:00,65.4,65.1,29.83,South,171,10.4,10.4,99,0.00,CLR,,0.00,WeatherDisplay:10.37,2013-01-30 13:24:00,
2013-01-30 08:29:00,65.6,65.3,29.83,SSE,155,7.2,7.2,99,0.00,CLR,,0.00,WeatherDisplay:10.37,2013-01-30 13:29:00,
2013-01-30 08:34:00,65.6,65.3,29.83,SE,136,10.4,10.4,99,0.00,CLR,,0.00,WeatherDisplay:10.37,2013-01-30 13:34:00,
2013-01-30 08:39:00,65.6,65.3,29.83,South,189,12.7,12.7,99,0.00,CLR,,0.00,WeatherDisplay:10.37,2013-01-30 13:39:00,
2013-01-30 08:45:00,65.6,65.3,29.83,SSE,161,9.2,9.2,99,0.00,CLR,,0.00,WeatherDisplay:10.37,2013-01-30 13:45:00,
2013-01-30 08:50:00,65.6,65.3,29.83,SSE,162,8.1,8.1,99,0.00,CLR,,0.00,WeatherDisplay:10.37,2013-01-30 13:50:00,
2013-01-30 08:55:00,65.6,65.0,29.83,SSE,157,13.8,13.8,98,0.00,CLR,,0.00,WeatherDisplay:10.37,2013-01-30 13:55:00,
2013-01-30 09:00:00,65.7,65.1,29.83,SSE,160,9.2,9.2,98,0.00,CLR,,0.00,WeatherDisplay:10.37,2013-01-30 14:00:00,
2013-01-30 09:05:00,65.8,65.2,29.83,South,182,9.2,9.2,98,0.00,CLR,,0.00,WeatherDisplay:10.37,2013-01-30 14:05:00,
2013-01-30 09:10:00,65.8,65.2,29.84,South,182,9.2,9.2,98,0.00,CLR,,0.00,WeatherDisplay:10.37,2013-01-30 14:10:00,
2013-01-30 09:15:00,65.9,65.3,29.83,SSE,161,15.0,15.0,98,0.00,CLR,,0.00,WeatherDisplay:10.37,2013-01-30 14:15:00,
2013-01-30 09:20:00,66.0,65.4,29.83,SSE,158,11.5,11.5,98,0.00,CLR,,0.00,WeatherDisplay:10.37,2013-01-30 14:20:00,
2013-01-30 09:25:00,66.0,65.4,29.83,South,174,12.7,12.7,98,0.00,CLR,,0.00,WeatherDisplay:10.37,2013-01-30 14:25:00,
2013-01-30 09:30:00,66.1,65.5,29.82,SSW,195,6.9,6.9,98,0.00,CLR,,0.00,WeatherDisplay:10.37,2013-01-30 14:30:00,
2013-01-30 09:35:00,66.3,65.7,29.83,South,181,11.5,11.5,98,0.00,CLR,,0.00,WeatherDisplay:10.37,2013-01-30 14:35:00,
2013-01-30 09:40:00,66.3,65.7,29.83,South,182,16.1,16.1,98,0.00,CLR,,0.00,WeatherDisplay:10.37,2013-01-30 14:40:00,
2013-01-30 09:45:00,66.5,65.9,29.82,ESE,119,8.1,8.1,98,0.00,CLR,,0.00,WeatherDisplay:10.37,2013-01-30 14:45:00,
2013-01-30 09:50:00,66.5,65.6,29.82,ESE,114,8.1,8.1,97,0.00,CLR,,0.00,WeatherDisplay:10.37,2013-01-30 14:50:00,
2013-01-30 09:55:00,66.7,65.8,29.82,South,179,8.1,8.1,97,0.00,CLR,,0.00,WeatherDisplay:10.37,2013-01-30 14:55:00,
2013-01-30 10:00:00,66.9,66.0,29.81,South,191,10.4,10.4,97,0.00,CLR,,0.00,WeatherDisplay:10.37,2013-01-30 15:00:00,
2013-01-30 10:05:00,67.0,65.8,29.81,SE,143,12.7,12.7,96,0.00,CLR,,0.00,WeatherDisplay:10.37,2013-01-30 15:05:00,
2013-01-30 10:10:00,67.2,66.0,29.80,SSW,195,11.5,11.5,96,0.00,CLR,,0.00,WeatherDisplay:10.37,2013-01-30 15:10:00,
2013-01-30 10:15:00,67.7,66.2,29.81,SSW,199,12.7,12.7,95,0.00,CLR,,0.00,WeatherDisplay:10.37,2013-01-30 15:15:00,
2013-01-30 10:20:00,67.9,66.1,29.80,SW,219,5.8,5.8,94,0.00,CLR,,0.00,WeatherDisplay:10.37,2013-01-30 15:20:00,
2013-01-30 10:25:00,68.0,65.9,29.81,SSW,196,5.8,5.8,93,0.00,CLR,,0.00,WeatherDisplay:10.37,2013-01-30 15:25:00,
2013-01-30 10:30:00,68.0,65.6,29.80,South,171,11.8,11.8,92,0.00,CLR,,0.00,WeatherDisplay:10.37,2013-01-30 15:30:00,
2013-01-30 10:35:00,67.9,65.2,29.80,South,185,6.9,6.9,91,0.00,CLR,,0.00,WeatherDisplay:10.37,2013-01-30 15:35:00,
2013-01-30 10:40:00,67.9,65.2,29.80,SSE,154,12.7,12.7,91,0.00,CLR,,0.00,WeatherDisplay:10.37,2013-01-30 15:40:00,
2013-01-30 10:45:00,68.0,65.3,29.80,SW,216,10.4,10.4,91,0.00,CLR,,0.00,WeatherDisplay:10.37,2013-01-30 15:45:00,
2013-01-30 10:50:00,68.0,65.0,29.80,SSW,192,9.4,9.4,90,0.00,CLR,,0.00,WeatherDisplay:10.37,2013-01-30 15:50:00,
2013-01-30 10:55:00,68.1,65.1,29.80,SSE,157,9.2,9.2,90,0.00,CLR,,0.00,WeatherDisplay:10.37,2013-01-30 15:55:00,
2013-01-30 11:00:00,68.1,64.7,29.79,SE,130,13.8,13.8,89,0.00,CLR,,0.00,WeatherDisplay:10.37,2013-01-30 16:00:00,
2013-01-30 11:05:00,68.2,64.8,29.79,South,185,12.7,12.7,89,0.00,CLR,,0.00,WeatherDisplay:10.37,2013-01-30 16:05:00,
2013-01-30 11:10:00,68.3,64.9,29.79,SSE,167,15.0,15.0,89,0.00,CLR,,0.00,WeatherDisplay:10.37,2013-01-30 16:10:00,
2013-01-30 11:15:00,68.2,65.2,29.79,SE,140,11.5,11.5,90,0.00,CLR,,0.00,WeatherDisplay:10.37,2013-01-30 16:15:00,
2013-01-30 11:20:00,68.1,65.1,29.79,South,188,10.4,10.4,90,0.00,CLR,,0.00,WeatherDisplay:10.37,2013-01-30 16:20:00,
2013-01-30 11:25:00,68.1,65.1,29.78,SSE,165,6.9,6.9,90,0.00,CLR,,0.00,WeatherDisplay:10.37,2013-01-30 16:25:00,
2013-01-30 11:30:00,68.1,65.1,29.78,South,189,7.1,7.1,90,0.00,CLR,,0.00,WeatherDisplay:10.37,2013-01-30 16:30:00,
2013-01-30 11:35:00,68.1,65.4,29.78,SSE,152,9.2,9.2,91,0.00,CLR,,0.00,WeatherDisplay:10.37,2013-01-30 16:35:00,
2013-01-30 11:40:00,68.1,65.4,29.78,SSW,210,12.7,12.7,91,0.00,CLR,,0.00,WeatherDisplay:10.37,2013-01-30 16:40:00,
2013-01-30 11:45:00,68.0,65.3,29.77,SE,144,7.8,7.8,91,0.00,CLR,,0.00,WeatherDisplay:10.37,2013-01-30 16:45:00,
2013-01-30 11:50:00,68.1,65.4,29.77,South,176,11.5,11.5,91,0.00,CLR,,0.00,WeatherDisplay:10.37,2013-01-30 16:50:00,
2013-01-30 11:55:00,68.1,65.4,29.77,South,178,12.7,12.7,91,0.00,CLR,,0.00,WeatherDisplay:10.37,2013-01-30 16:55:00,
2013-01-30 12:00:00,68.1,65.4,29.76,South,188,10.4,10.4,91,0.00,CLR,,0.00,WeatherDisplay:10.37,2013-01-30 17:00:00,
2013-01-30 12:05:00,68.3,65.3,29.75,SSE,155,8.1,8.1,90,0.00,CLR,,0.00,WeatherDisplay:10.37,2013-01-30 17:05:00,
2013-01-30 12:10:00,68.3,65.3,29.75,South,174,11.5,11.5,90,0.00,CLR,,0.00,WeatherDisplay:10.37,2013-01-30 17:10:00,
2013-01-30 12:15:00,68.3,65.3,29.75,SE,138,8.1,8.1,90,0.00,CLR,,0.00,WeatherDisplay:10.37,2013-01-30 17:15:00,
2013-01-30 12:20:00,68.3,65.6,29.74,ESE,117,8.1,8.1,91,0.00,CLR,,0.00,WeatherDisplay:10.37,2013-01-30 17:20:00,
2013-01-30 12:25:00,68.2,65.5,29.74,SE,128,5.8,5.8,91,0.00,CLR,,0.00,WeatherDisplay:10.37,2013-01-30 17:25:00,
2013-01-30 12:30:00,68.2,65.5,29.74,SW,217,10.4,10.4,91,0.00,CLR,,0.00,WeatherDisplay:10.37,2013-01-30 17:30:00,
2013-01-30 12:35:00,68.3,65.6,29.73,South,186,6.9,6.9,91,0.00,CLR,,0.00,WeatherDisplay:10.37,2013-01-30 17:35:00,
2013-01-30 12:40:00,68.2,65.5,29.73,SSE,161,8.1,8.1,91,0.00,CLR,,0.00,WeatherDisplay:10.37,2013-01-30 17:40:00,
2013-01-30 12:45:00,68.2,65.5,29.73,SSW,199,13.8,13.8,91,0.00,CLR,,0.00,WeatherDisplay:10.37,2013-01-30 17:45:00,
2013-01-30 12:50:00,68.2,65.5,29.72,SSE,151,9.2,9.2,91,0.00,CLR,,0.00,WeatherDisplay:10.37,2013-01-30 17:50:00,
2013-01-30 12:55:00,68.1,65.4,29.72,South,172,8.6,8.6,91,0.00,CLR,,0.00,WeatherDisplay:10.37,2013-01-30 17:55:00,
2013-01-30 13:00:00,68.2,65.5,29.71,SSW,200,8.1,8.1,91,0.00,CLR,,0.00,WeatherDisplay:10.37,2013-01-30 18:00:00,
2013-01-30 13:05:00,68.2,65.5,29.70,ESE,116,8.1,8.1,91,0.00,CLR,,0.00,WeatherDisplay:10.37,2013-01-30 18:05:00,
2013-01-30 13:11:00,68.3,65.9,29.70,East,99,16.1,16.1,92,0.00,CLR,,0.00,WeatherDisplay:10.37,2013-01-30 18:11:00,
2013-01-30 13:16:00,68.3,65.9,29.69,SSW,193,11.5,11.5,92,0.00,CLR,,0.00,WeatherDisplay:10.37,2013-01-30 18:16:00,
2013-01-30 13:21:00,68.2,66.1,29.69,South,171,5.8,5.8,93,0.00,CLR,,0.00,WeatherDisplay:10.37,2013-01-30 18:21:00,
2013-01-30 13:26:00,68.1,66.0,29.69,SSE,147,5.8,6.7,93,0.00,CLR,,0.00,WeatherDisplay:10.37,2013-01-30 18:26:00,
2013-01-30 13:31:00,68.2,66.1,29.68,South,174,9.2,9.2,93,0.00,CLR,,0.00,WeatherDisplay:10.37,2013-01-30 18:31:00,
2013-01-30 13:36:00,68.3,66.2,29.67,South,185,6.9,6.9,93,0.00,CLR,,0.00,WeatherDisplay:10.37,2013-01-30 18:36:00,
2013-01-30 13:41:00,68.2,66.1,29.67,South,171,8.1,8.1,93,0.00,CLR,,0.00,WeatherDisplay:10.37,2013-01-30 18:41:00,
2013-01-30 13:46:00,68.2,65.8,29.67,SSE,154,8.1,8.1,92,0.00,CLR,,0.00,WeatherDisplay:10.37,2013-01-30 18:46:00,
2013-01-30 13:51:00,68.3,65.9,29.66,SE,137,8.1,8.1,92,0.00,CLR,,0.00,WeatherDisplay:10.37,2013-01-30 18:51:00,
2013-01-30 13:56:00,68.3,65.9,29.66,South,184,6.9,6.9,92,0.00,CLR,,0.00,WeatherDisplay:10.37,2013-01-30 18:56:00,
2013-01-30 14:01:00,68.3,65.9,29.66,SSW,206,8.1,8.1,92,0.00,CLR,,0.00,WeatherDisplay:10.37,2013-01-30 19:01:00,
2013-01-30 14:06:00,68.2,66.1,29.66,South,182,11.5,11.5,93,0.00,CLR,,0.00,WeatherDisplay:10.37,2013-01-30 19:06:00,
2013-01-30 14:11:00,68.2,66.1,29.66,South,185,10.4,10.4,93,0.00,CLR,,0.00,WeatherDisplay:10.37,2013-01-30 19:11:00,
2013-01-30 14:16:00,68.1,66.0,29.65,SSE,152,8.1,8.1,93,0.00,CLR,,0.00,WeatherDisplay:10.37,2013-01-30 19:16:00,
2013-01-30 14:21:00,68.2,66.1,29.64,SSE,148,11.5,11.5,93,0.00,CLR,,0.00,WeatherDisplay:10.37,2013-01-30 19:21:00,
2013-01-30 14:26:00,68.1,66.3,29.64,South,185,8.1,8.1,94,0.00,CLR,,0.00,WeatherDisplay:10.37,2013-01-30 19:26:00,
2013-01-30 14:31:00,68.0,66.5,29.63,SSE,157,15.0,15.0,95,0.00,CLR,,0.00,WeatherDisplay:10.37,2013-01-30 19:31:00,
2013-01-30 14:36:00,68.0,66.5,29.62,SSW,212,6.1,6.1,95,0.00,CLR,,0.00,WeatherDisplay:10.37,2013-01-30 19:36:00,
2013-01-30 14:41:00,68.0,66.5,29.62,ESE,110,8.1,8.1,95,0.00,CLR,,0.00,WeatherDisplay:10.37,2013-01-30 19:41:00,
2013-01-30 14:46:00,68.0,66.2,29.62,SSE,158,10.4,10.4,94,0.00,CLR,,0.00,WeatherDisplay:10.37,2013-01-30 19:46:00,
2013-01-30 14:51:00,68.3,66.2,29.61,SSE,151,10.4,10.4,93,0.00,CLR,,0.00,WeatherDisplay:10.37,2013-01-30 19:51:00,
2013-01-30 14:56:00,68.4,66.0,29.61,SE,137,9.2,9.2,92,0.00,CLR,,0.00,WeatherDisplay:10.37,2013-01-30 19:56:00,
2013-01-30 15:01:00,68.4,66.0,29.61,SW,217,8.1,8.1,92,0.00,CLR,,0.00,WeatherDisplay:10.37,2013-01-30 20:01:00,
2013-01-30 15:06:00,68.5,66.1,29.60,ESE,107,6.9,6.9,92,0.00,CLR,,0.00,WeatherDisplay:10.37,2013-01-30 20:06:00,
2013-01-30 15:11:00,68.4,66.0,29.60,SSE,161,9.2,9.2,92,0.00,CLR,,0.00,WeatherDisplay:10.37,2013-01-30 20:11:00,
2013-01-30 15:16:00,68.4,66.0,29.59,SSE,155,9.2,9.2,92,0.00,CLR,,0.00,WeatherDisplay:10.37,2013-01-30 20:16:00,
2013-01-30 15:21:00,68.5,65.8,29.58,SE,140,9.2,9.2,91,0.00,CLR,,0.00,WeatherDisplay:10.37,2013-01-30 20:21:00,
2013-01-30 15:26:00,68.4,66.0,29.57,SSE,165,5.8,5.8,92,0.00,CLR,,0.00,WeatherDisplay:10.37,2013-01-30 20:26:00,
2013-01-30 15:31:00,68.5,65.8,29.58,SE,130,9.5,9.5,91,0.00,CLR,,0.00,WeatherDisplay:10.37,2013-01-30 20:31:00,
2013-01-30 15:36:00,68.4,65.7,29.57,SE,124,6.9,6.9,91,0.00,CLR,,0.00,WeatherDisplay:10.37,2013-01-30 20:36:00,
2013-01-30 15:41:00,68.4,65.7,29.57,SSW,200,6.5,6.5,91,0.00,CLR,,0.00,WeatherDisplay:10.37,2013-01-30 20:41:00,
2013-01-30 15:46:00,68.5,65.4,29.56,SE,134,10.9,10.9,90,0.00,CLR,,0.00,WeatherDisplay:10.37,2013-01-30 20:46:00,
2013-01-30 15:51:00,68.7,65.6,29.56,SE,137,9.2,9.2,90,0.00,CLR,,0.00,WeatherDisplay:10.37,2013-01-30 20:51:00,
2013-01-30 15:56:00,68.8,65.7,29.56,SW,216,9.2,9.2,90,0.00,CLR,,0.00,WeatherDisplay:10.37,2013-01-30 20:56:00,
2013-01-30 16:01:00,69.0,65.6,29.55,SE,127,11.5,11.5,89,0.00,CLR,,0.00,WeatherDisplay:10.37,2013-01-30 21:01:00,
2013-01-30 16:06:00,69.0,65.6,29.55,SSE,161,11.5,11.5,89,0.00,CLR,,0.00,WeatherDisplay:10.37,2013-01-30 21:06:00,
2013-01-30 16:11:00,69.2,65.8,29.54,SE,138,13.8,13.8,89,0.00,CLR,,0.00,WeatherDisplay:10.37,2013-01-30 21:11:00,
2013-01-30 16:16:00,69.1,66.0,29.54,East,88,15.0,15.0,90,0.00,CLR,,0.00,WeatherDisplay:10.37,2013-01-30 21:16:00,
2013-01-30 16:21:00,69.0,66.6,29.55,South,172,11.5,11.5,92,0.00,CLR,,0.00,WeatherDisplay:10.37,2013-01-30 21:21:00,
2013-01-30 16:26:00,68.7,66.6,29.54,SE,143,15.0,15.0,93,0.00,CLR,,0.00,WeatherDisplay:10.37,2013-01-30 21:26:00,
2013-01-30 16:31:00,68.5,66.4,29.53,East,96,10.4,10.4,93,0.00,CLR,,0.00,WeatherDisplay:10.37,2013-01-30 21:31:00,
2013-01-30 16:36:00,68.5,66.7,29.52,SSE,161,9.2,9.2,94,0.00,CLR,,0.00,WeatherDisplay:10.37,2013-01-30 21:36:00,
2013-01-30 16:41:00,68.5,67.0,29.52,ESE,119,5.8,5.8,95,0.00,CLR,,0.00,WeatherDisplay:10.37,2013-01-30 21:41:00,
2013-01-30 16:46:00,68.4,66.9,29.52,South,191,9.6,9.6,95,0.00,CLR,,0.00,WeatherDisplay:10.37,2013-01-30 21:46:00,
2013-01-30 16:51:00,68.3,67.1,29.51,SE,128,8.1,8.1,96,0.00,CLR,,0.00,WeatherDisplay:10.37,2013-01-30 21:51:00,
2013-01-30 16:56:00,68.3,67.4,29.51,SSE,167,12.1,12.1,97,0.00,CLR,,0.00,WeatherDisplay:10.37,2013-01-30 21:56:00,
2013-01-30 17:01:00,68.1,67.5,29.50,SSW,199,6.5,6.5,98,0.02,RA,,0.02,WeatherDisplay:10.37,2013-01-30 22:01:00,
2013-01-30 17:06:00,67.8,67.5,29.50,ESE,107,8.9,8.9,99,0.03,RA,,0.03,WeatherDisplay:10.37,2013-01-30 22:06:00,
2013-01-30 17:11:00,67.3,67.3,29.49,SSE,150,9.2,9.2,100,0.04,RA,,0.05,WeatherDisplay:10.37,2013-01-30 22:11:00,
2013-01-30 17:16:00,67.4,67.4,29.49,South,176,10.4,10.4,100,0.06,RA,,0.06,WeatherDisplay:10.37,2013-01-30 22:16:00,
2013-01-30 17:21:00,68.4,68.4,29.48,SSE,155,8.1,8.1,100,0.07,RA,,0.08,WeatherDisplay:10.37,2013-01-30 22:21:00,
2013-01-30 17:26:00,68.6,68.3,29.50,SSW,203,10.4,10.4,99,0.09,RA,,0.09,WeatherDisplay:10.37,2013-01-30 22:26:00,
2013-01-30 17:31:00,68.1,68.1,29.51,WSW,257,5.8,5.8,100,0.11,RA,,0.12,WeatherDisplay:10.37,2013-01-30 22:31:00,
2013-01-30 17:36:00,67.9,67.9,29.51,SSW,203,6.3,6.3,100,0.13,RA,,0.14,WeatherDisplay:10.37,2013-01-30 22:36:00,
2013-01-30 17:41:00,67.4,67.4,29.51,SSW,205,1.1,0.0,100,0.15,RA,,0.16,WeatherDisplay:10.37,2013-01-30 22:41:00,
2013-01-30 17:46:00,67.3,67.3,29.53,SW,229,4.6,4.6,100,0.20,RA,,0.21,WeatherDisplay:10.37,2013-01-30 22:46:00,
2013-01-30 17:51:00,67.1,67.1,29.54,South,189,9.1,9.1,100,0.44,RA,,0.47,WeatherDisplay:10.37,2013-01-30 22:51:00,
2013-01-30 17:56:00,66.1,66.1,29.52,SSE,152,9.2,9.2,100,0.55,RA,,0.56,WeatherDisplay:10.37,2013-01-30 22:56:00,
2013-01-30 18:01:00,65.3,65.3,29.50,SSW,192,16.1,16.1,100,0.55,RA,,0.57,WeatherDisplay:10.37,2013-01-30 23:01:00,
2013-01-30 18:06:00,64.8,64.8,29.51,South,174,6.9,6.9,100,0.55,RA,,0.58,WeatherDisplay:10.37,2013-01-30 23:06:00,
2013-01-30 18:11:00,64.6,64.6,29.51,SSW,198,4.8,4.8,100,0.54,RA,,0.58,WeatherDisplay:10.37,2013-01-30 23:11:00,
2013-01-30 18:16:00,65.2,65.2,29.51,South,169,5.8,5.8,100,0.52,CLR,,0.58,WeatherDisplay:10.37,2013-01-30 23:16:00,
2013-01-30 18:21:00,65.5,65.5,29.51,SSE,147,2.3,2.3,100,0.51,CLR,,0.59,WeatherDisplay:10.37,2013-01-30 23:21:00,
2013-01-30 18:26:00,65.1,65.1,29.50,South,171,0.0,0.0,100,0.50,RA,,0.59,WeatherDisplay:10.37,2013-01-30 23:26:00,
2013-01-30 18:31:00,64.7,64.7,29.50,SSW,199,2.3,0.0,100,0.48,RA,,0.59,WeatherDisplay:10.37,2013-01-30 23:31:00,
2013-01-30 18:36:00,64.3,64.3,29.49,ESE,120,0.0,0.0,100,0.46,CLR,,0.59,WeatherDisplay:10.37,2013-01-30 23:36:00,
2013-01-30 18:42:00,64.2,64.2,29.50,WSW,253,5.8,5.8,100,0.44,CLR,,0.59,WeatherDisplay:10.37,2013-01-30 23:42:00,
2013-01-30 18:47:00,65.2,65.2,29.49,SSW,198,2.3,2.3,100,0.39,CLR,,0.59,WeatherDisplay:10.37,2013-01-30 23:47:00,
2013-01-30 18:52:00,65.4,65.4,29.50,WSW,237,5.7,5.7,100,0.15,CLR,,0.59,WeatherDisplay:10.37,2013-01-30 23:52:00,
2013-01-30 18:57:00,65.1,65.1,29.50,SSW,200,8.1,8.1,100,0.05,RA,,0.60,WeatherDisplay:10.37,2013-01-30 23:57:00,
2013-01-30 19:02:00,64.7,64.7,29.51,SSW,210,8.1,8.1,100,0.03,RA,,0.60,WeatherDisplay:10.37,2013-01-31 00:02:00,
2013-01-30 19:07:00,64.1,64.1,29.51,South,188,5.1,5.1,100,0.04,RA,,0.62,WeatherDisplay:10.37,2013-01-31 00:07:00,
2013-01-30 19:12:00,63.8,63.8,29.52,SE,131,2.3,2.3,100,0.04,RA,,0.62,WeatherDisplay:10.37,2013-01-31 00:12:00,
2013-01-30 19:17:00,64.4,64.4,29.51,SSW,198,0.0,0.0,100,0.05,RA,,0.64,WeatherDisplay:10.37,2013-01-31 00:17:00,
2013-01-30 19:22:00,64.8,64.8,29.51,SSW,192,1.1,0.0,100,0.06,RA,,0.64,WeatherDisplay:10.37,2013-01-31 00:22:00,
2013-01-30 19:27:00,64.2,64.2,29.50,SW,215,3.5,3.5,100,0.05,RA,,0.64,WeatherDisplay:10.37,2013-01-31 00:27:00,
2013-01-30 19:32:00,63.7,63.7,29.50,WSW,257,6.3,6.3,100,0.05,CLR,,0.64,WeatherDisplay:10.37,2013-01-31 00:32:00,
2013-01-30 19:37:00,63.5,63.5,29.51,South,186,0.0,0.0,100,0.05,CLR,,0.64,WeatherDisplay:10.37,2013-01-31 00:37:00,
2013-01-30 19:42:00,63.1,63.1,29.51,SSE,155,5.8,5.8,100,0.05,CLR,,0.64,WeatherDisplay:10.37,2013-01-31 00:42:00,
2013-01-30 19:47:00,62.8,62.8,29.52,SSE,147,3.5,3.5,100,0.06,RA,,0.65,WeatherDisplay:10.37,2013-01-31 00:47:00,
2013-01-30 19:52:00,62.6,62.6,29.52,WSW,254,8.1,8.1,100,0.06,RA,,0.65,WeatherDisplay:10.37,2013-01-31 00:52:00,
2013-01-30 19:57:00,63.3,63.3,29.53,South,169,11.5,11.5,100,0.05,CLR,,0.65,WeatherDisplay:10.37,2013-01-31 00:57:00,
2013-01-30 20:02:00,63.4,62.8,29.54,South,189,11.8,11.8,98,0.05,CLR,,0.65,WeatherDisplay:10.37,2013-01-31 01:02:00,
2013-01-30 20:07:00,62.8,62.2,29.55,SW,220,15.0,15.0,98,0.03,CLR,,0.65,WeatherDisplay:10.37,2013-01-31 01:07:00,
2013-01-30 20:12:00,62.1,61.5,29.54,South,176,9.2,9.2,98,0.03,CLR,,0.66,WeatherDisplay:10.37,2013-01-31 01:12:00,
2013-01-30 20:17:00,61.7,61.1,29.54,WSW,244,10.4,10.4,98,0.02,RA,,0.66,WeatherDisplay:10.37,2013-01-31 01:17:00,
2013-01-30 20:22:00,61.2,60.6,29.55,South,185,5.8,5.8,98,0.02,RA,,0.66,WeatherDisplay:10.37,2013-01-31 01:22:00,
2013-01-30 20:27:00,60.7,60.1,29.55,WSW,237,8.1,8.1,98,0.02,CLR,,0.66,WeatherDisplay:10.37,2013-01-31 01:27:00,
2013-01-30 20:32:00,60.3,59.7,29.56,SSE,147,8.1,8.1,98,0.02,CLR,,0.66,WeatherDisplay:10.37,2013-01-31 01:32:00,
2013-01-30 20:37:00,59.8,59.2,29.57,SSE,155,10.4,10.4,98,0.02,CLR,,0.66,WeatherDisplay:10.37,2013-01-31 01:37:00,
2013-01-30 20:42:00,59.8,58.9,29.57,South,176,8.1,8.1,97,0.02,CLR,,0.66,WeatherDisplay:10.37,2013-01-31 01:42:00,
2013-01-30 20:47:00,60.8,59.1,29.58,West,267,3.9,3.9,94,0.01,CLR,,0.66,WeatherDisplay:10.37,2013-01-31 01:47:00,
2013-01-30 20:52:00,61.2,56.7,29.52,South,179,12.7,12.7,85,0.01,CLR,,0.66,WeatherDisplay:10.37,2013-01-31 01:52:00,
2013-01-30 20:57:00,61.1,55.6,29.55,SSE,164,6.9,6.9,82,0.01,CLR,,0.66,WeatherDisplay:10.37,2013-01-31 01:57:00,
2013-01-30 21:02:00,59.9,55.4,29.55,SSW,205,6.4,6.4,85,0.01,CLR,,0.66,WeatherDisplay:10.37,2013-01-31 02:02:00,
2013-01-30 21:07:00,59.5,54.3,29.55,SW,226,12.7,12.7,83,0.01,CLR,,0.66,WeatherDisplay:10.37,2013-01-31 02:07:00,
2013-01-30 21:12:00,59.7,53.9,29.55,South,185,9.3,9.3,81,0.02,RA,,0.67,WeatherDisplay:10.37,2013-01-31 02:12:00,
2013-01-30 21:17:00,59.4,53.9,29.57,South,171,6.9,6.9,82,0.01,RA,,0.67,WeatherDisplay:10.37,2013-01-31 02:17:00,
2013-01-30 21:22:00,58.6,54.1,29.56,WSW,258,7.5,7.5,85,0.01,,,0.67,WeatherDisplay:10.37,2013-01-31 02:22:00,
2013-01-30 21:27:00,58.5,54.0,29.55,South,188,10.4,10.4,85,0.01,CLR,,0.67,WeatherDisplay:10.37,2013-01-31 02:27:00,
2013-01-30 21:32:00,59.0,53.5,29.57,SW,217,4.6,4.6,82,0.01,CLR,,0.67,WeatherDisplay:10.37,2013-01-31 02:32:00,
2013-01-30 21:37:00,58.7,53.9,29.57,SE,141,6.9,6.9,84,0.01,CLR,,0.67,WeatherDisplay:10.37,2013-01-31 02:37:00,
2013-01-30 21:42:00,58.0,54.5,29.59,SE,137,6.9,6.9,88,0.01,CLR,,0.67,WeatherDisplay:10.37,2013-01-31 02:42:00,
2013-01-30 21:47:00,58.0,54.8,29.59,South,171,6.9,6.9,89,0.01,CLR,,0.67,WeatherDisplay:10.37,2013-01-31 02:47:00,
2013-01-30 21:52:00,58.1,54.2,29.59,SW,219,8.1,8.1,87,0.01,CLR,,0.67,WeatherDisplay:10.37,2013-01-31 02:52:00,
2013-01-30 21:57:00,57.2,54.0,29.59,SSW,205,8.1,8.1,89,0.02,RA,,0.68,WeatherDisplay:10.37,2013-01-31 02:57:00,
2013-01-30 22:02:00,56.2,53.6,29.58,SSW,193,8.1,8.1,91,0.02,RA,,0.68,WeatherDisplay:10.37,2013-01-31 03:02:00,
2013-01-30 22:07:00,55.4,53.1,29.59,SW,234,10.7,10.7,92,0.02,,,0.68,WeatherDisplay:10.37,2013-01-31 03:07:00,
2013-01-30 22:12:00,54.9,52.9,29.57,ENE,73,10.4,10.4,93,0.01,CLR,,0.68,WeatherDisplay:10.37,2013-01-31 03:12:00,
2013-01-30 22:17:00,54.3,52.6,29.58,WSW,240,6.5,6.5,94,0.01,CLR,,0.68,WeatherDisplay:10.37,2013-01-31 03:17:00,
2013-01-30 22:22:00,53.9,52.2,29.58,SSE,158,4.6,4.6,94,0.01,CLR,,0.68,WeatherDisplay:10.37,2013-01-31 03:22:00,
2013-01-30 22:27:00,53.7,52.3,29.60,SE,128,7.4,7.4,95,0.01,CLR,,0.68,WeatherDisplay:10.37,2013-01-31 03:27:00,
2013-01-30 22:32:00,53.4,51.7,29.61,SSW,203,8.1,8.1,94,0.01,CLR,,0.68,WeatherDisplay:10.37,2013-01-31 03:32:00,
2013-01-30 22:37:00,53.2,51.5,29.60,SE,137,12.7,12.7,94,0.02,RA,,0.69,WeatherDisplay:10.37,2013-01-31 03:37:00,
2013-01-30 22:42:00,52.9,51.2,29.59,SSE,157,8.5,8.5,94,0.02,RA,,0.69,WeatherDisplay:10.37,2013-01-31 03:42:00,
2013-01-30 22:47:00,52.8,51.1,29.59,SSW,210,11.5,11.5,94,0.02,,,0.69,WeatherDisplay:10.37,2013-01-31 03:47:00,
2013-01-30 22:52:00,52.7,51.0,29.60,South,186,8.1,8.1,94,0.02,CLR,,0.69,WeatherDisplay:10.37,2013-01-31 03:52:00,
2013-01-30 22:57:00,52.4,50.4,29.62,South,179,13.8,13.8,93,0.01,CLR,,0.69,WeatherDisplay:10.37,2013-01-31 03:57:00,
2013-01-30 23:02:00,52.2,50.2,29.60,SSW,208,11.5,11.5,93,0.01,CLR,,0.69,WeatherDisplay:10.37,2013-01-31 04:02:00,
2013-01-30 23:07:00,52.0,50.0,29.59,WSW,251,10.4,10.4,93,0.01,CLR,,0.69,WeatherDisplay:10.37,2013-01-31 04:07:00,
2013-01-30 23:12:00,51.8,50.1,29.59,ESE,121,5.8,5.8,94,0.01,CLR,,0.69,WeatherDisplay:10.37,2013-01-31 04:12:00,
2013-01-30 23:17:00,51.6,49.9,29.61,SW,234,9.1,9.1,94,0.01,CLR,,0.69,WeatherDisplay:10.37,2013-01-31 04:17:00,
2013-01-30 23:22:00,51.6,50.2,29.60,SSW,192,13.8,13.8,95,0.01,CLR,,0.69,WeatherDisplay:10.37,2013-01-31 04:22:00,
2013-01-30 23:27:00,51.5,50.1,29.60,SSE,158,6.9,6.9,95,0.01,CLR,,0.69,WeatherDisplay:10.37,2013-01-31 04:27:00,
2013-01-30 23:32:00,51.3,49.9,29.59,SW,230,5.8,5.8,95,0.01,CLR,,0.69,WeatherDisplay:10.37,2013-01-31 04:32:00,
2013-01-30 23:37:00,51.3,50.2,29.60,SSW,209,10.4,10.4,96,0.00,CLR,,0.69,WeatherDisplay:10.37,2013-01-31 04:37:00,
2013-01-30 23:42:00,51.2,50.1,29.61,SSW,212,5.8,5.8,96,0.00,CLR,,0.69,WeatherDisplay:10.37,2013-01-31 04:42:00,
2013-01-30 23:48:00,51.1,50.0,29.62,SSE,167,10.4,10.4,96,0.00,CLR,,0.69,WeatherDisplay:10.37,2013-01-31 04:48:00,
2013-01-30 23:53:00,51.1,50.0,29.61,South,184,11.5,11.5,96,0.00,CLR,,0.69,WeatherDisplay:10.37,2013-01-31 04:53:00,
2013-01-30 23:58:00,51.1,49.7,29.61,West,260,8.1,8.1,95,0.00,CLR,,0.69,WeatherDisplay:10.37,2013-01-31 04:58:00,